ZKKOL VOHS-ZZZZ
Flight info
| Callsign | ZKKOL |
|---|---|
| Flight time | N/A |
| Altitude | 3000 |
| Route | 02 CCTS 09R FOLLOWED BY FULL STOP AT ADEST |
| Aircraft | C172/L-SFG/C |
Departure
| Time | 2026-04-12 11:05 |
|---|---|
| Airport | Rajiv Gandhi International Airport (VOHS) |
Arrival
| Time | N/A |
|---|---|
| Airport | ZZZZ |
| Time | Latitude | Longitude | Altitude | Speed | Heading |
|---|---|---|---|---|---|
| 2026-04-12 10:54 | 17.23430 | 78.41987 | 1959 ft | 0 kts | 19° |
| 2026-04-12 10:55 | 17.23435 | 78.41990 | 1959 ft | 3 kts | 37° |
| 2026-04-12 10:55 | 17.23432 | 78.42027 | 1961 ft | 8 kts | 118° |
| 2026-04-12 10:55 | 17.23360 | 78.42069 | 1963 ft | 14 kts | 169° |
| 2026-04-12 10:55 | 17.23244 | 78.42072 | 1961 ft | 12 kts | 171° |
| 2026-04-12 10:56 | 17.23230 | 78.42119 | 1964 ft | 4 kts | 91° |
| 2026-04-12 10:56 | 17.23231 | 78.42162 | 1967 ft | 9 kts | 88° |
| 2026-04-12 10:56 | 17.23183 | 78.42235 | 1968 ft | 17 kts | 171° |
| 2026-04-12 10:56 | 17.23021 | 78.42240 | 1963 ft | 13 kts | 174° |
| 2026-04-12 10:57 | 17.23007 | 78.42240 | 1963 ft | 0 kts | 187° |
| 2026-04-12 10:57 | 17.23005 | 78.42240 | 1963 ft | 0 kts | 187° |
| 2026-04-12 10:57 | 17.23003 | 78.42239 | 1963 ft | 0 kts | 181° |
| 2026-04-12 11:00 | 17.22995 | 78.42239 | 1963 ft | 3 kts | 180° |
| 2026-04-12 11:00 | 17.22976 | 78.42239 | 1964 ft | 0 kts | 181° |
| 2026-04-12 11:03 | 17.22974 | 78.42239 | 1964 ft | 2 kts | 180° |
| 2026-04-12 11:03 | 17.22925 | 78.42241 | 1965 ft | 11 kts | 172° |
| 2026-04-12 11:03 | 17.22875 | 78.42359 | 1969 ft | 36 kts | 90° |
| 2026-04-12 11:04 | 17.22875 | 78.42752 | 1997 ft | 65 kts | 89° |
| 2026-04-12 11:04 | 17.22861 | 78.43218 | 2121 ft | 65 kts | 91° |
| 2026-04-12 11:04 | 17.22843 | 78.43694 | 2242 ft | 65 kts | 89° |
| 2026-04-12 11:04 | 17.22889 | 78.44166 | 2360 ft | 64 kts | 88° |
| 2026-04-12 11:05 | 17.22885 | 78.44644 | 2479 ft | 64 kts | 88° |
| 2026-04-12 11:05 | 17.22872 | 78.45110 | 2597 ft | 64 kts | 90° |
| 2026-04-12 11:05 | 17.22824 | 78.45579 | 2714 ft | 65 kts | 107° |
| 2026-04-12 11:05 | 17.22419 | 78.45796 | 2787 ft | 76 kts | 185° |
| 2026-04-12 11:06 | 17.21906 | 78.45772 | 2940 ft | 69 kts | 173° |
| 2026-04-12 11:06 | 17.21426 | 78.45689 | 3010 ft | 78 kts | 222° |
| 2026-04-12 11:06 | 17.21330 | 78.45116 | 3062 ft | 82 kts | 267° |
| 2026-04-12 11:06 | 17.21324 | 78.44473 | 3019 ft | 92 kts | 269° |
| 2026-04-12 11:07 | 17.21297 | 78.43788 | 3001 ft | 94 kts | 267° |
| 2026-04-12 11:07 | 17.21268 | 78.43120 | 3029 ft | 91 kts | 266° |
| 2026-04-12 11:07 | 17.21207 | 78.42457 | 3038 ft | 93 kts | 263° |
| 2026-04-12 11:07 | 17.21154 | 78.41746 | 2981 ft | 97 kts | 268° |
| 2026-04-12 11:08 | 17.21134 | 78.41043 | 2968 ft | 97 kts | 268° |
| 2026-04-12 11:08 | 17.21100 | 78.40346 | 2990 ft | 93 kts | 265° |
| 2026-04-12 11:08 | 17.21052 | 78.39663 | 2989 ft | 94 kts | 265° |
| 2026-04-12 11:08 | 17.20992 | 78.38982 | 2984 ft | 95 kts | 266° |
| 2026-04-12 11:09 | 17.21253 | 78.38384 | 2834 ft | 94 kts | 329° |
| 2026-04-12 11:09 | 17.21865 | 78.38191 | 2705 ft | 85 kts | 350° |
| 2026-04-12 11:09 | 17.22436 | 78.38142 | 2614 ft | 80 kts | 17° |
| 2026-04-12 11:09 | 17.22839 | 78.38569 | 2451 ft | 88 kts | 78° |
| 2026-04-12 11:10 | 17.22826 | 78.39201 | 2362 ft | 88 kts | 88° |
| 2026-04-12 11:10 | 17.22835 | 78.39807 | 2308 ft | 74 kts | 85° |
| 2026-04-12 11:10 | 17.22846 | 78.40330 | 2220 ft | 71 kts | 85° |
| 2026-04-12 11:10 | 17.22848 | 78.40851 | 2107 ft | 72 kts | 86° |
| 2026-04-12 11:11 | 17.22859 | 78.41376 | 2004 ft | 73 kts | 85° |
| 2026-04-12 11:11 | 17.22865 | 78.41868 | 1962 ft | 55 kts | 89° |
| 2026-04-12 11:11 | 17.22869 | 78.42122 | 1964 ft | 12 kts | 88° |
| 2026-04-12 11:11 | 17.22873 | 78.42192 | 1965 ft | 8 kts | 72° |
| 2026-04-12 11:12 | 17.22914 | 78.42227 | 1966 ft | 8 kts | 19° |
| 2026-04-12 11:12 | 17.23010 | 78.42239 | 1963 ft | 19 kts | 359° |
| 2026-04-12 11:12 | 17.23161 | 78.42238 | 1966 ft | 18 kts | 358° |
| 2026-04-12 11:12 | 17.23229 | 78.42179 | 1968 ft | 13 kts | 274° |
| 2026-04-12 11:13 | 17.23229 | 78.42076 | 1961 ft | 14 kts | 268° |
| 2026-04-12 11:13 | 17.23240 | 78.42028 | 1958 ft | 5 kts | 355° |
| 2026-04-12 11:13 | 17.23294 | 78.42028 | 1959 ft | 11 kts | 358° |
| 2026-04-12 11:13 | 17.23385 | 78.42026 | 1960 ft | 12 kts | 1° |
| 2026-04-12 11:14 | 17.23438 | 78.42025 | 1961 ft | 1 kts | 355° |
| 2026-04-12 11:14 | 17.23442 | 78.42025 | 1961 ft | 0 kts | 359° |